Time;durP1;ratioP1;P1;durP2;ratioP2;P2;SDS_P1;SDS_P2;PMS_P1;PMS_P2;Temp;Humidity;BMP_temperature;BMP_pressure;BME280_temperature;BME280_humidity;BME280_pressure;Samples;Min_cycle;Max_cycle;Signal;HPM_P1;HPM_P2
2022/01/13 00:00:09;;;;;;;;;34.67;25.67;;;;;4.78;95.67;103945.16;5035790;28;45662;-68
2022/01/13 00:02:36;;;;;;;;;26.00;21.00;;;;;4.75;94.13;103937.16;5035940;27;45450;-67
2022/01/13 00:05:03;;;;;;;;;36.33;27.00;;;;;4.82;94.54;103954.00;5035393;28;46460;-68
2022/01/13 00:07:29;;;;;;;;;31.33;25.67;;;;;4.83;94.85;103959.31;5035251;28;45267;-67
2022/01/13 00:09:54;;;;;;;;;32.67;25.67;;;;;4.72;94.89;103937.00;5035753;28;45272;-67
2022/01/13 00:12:21;;;;;;;;;30.00;22.67;;;;;4.68;93.18;103937.63;5035686;28;45325;-67
2022/01/13 00:25:33;;;;;;;;;31.00;25.00;;;;;4.67;95.51;103936.72;5012986;28;45380;-67
2022/01/13 00:28:01;;;;;;;;;32.33;18.67;;;;;4.68;94.54;103941.13;5013039;28;45419;-67
2022/01/13 00:30:26;;;;;;;;;27.00;19.00;;;;;4.62;94.16;103929.47;5013460;28;45468;-67
2022/01/13 00:32:52;;;;;;;;;25.67;21.33;;;;;4.79;94.17;103953.84;5013354;28;45421;-67
2022/01/13 00:35:17;;;;;;;;;30.33;22.33;;;;;4.74;92.14;103951.00;5012988;27;46209;-67
2022/01/13 00:37:43;;;;;;;;;33.33;22.33;;;;;4.74;93.26;103952.72;5013165;28;45420;-67
2022/01/13 00:40:10;;;;;;;;;33.00;23.00;;;;;4.71;94.67;103950.84;5012989;28;45388;-67
2022/01/13 00:42:36;;;;;;;;;28.67;22.33;;;;;4.75;93.58;103963.25;5013317;28;45437;-67
2022/01/13 00:45:03;;;;;;;;;38.33;28.00;;;;;4.71;94.79;103941.28;5013175;27;45988;-67
2022/01/13 00:47:30;;;;;;;;;30.67;22.67;;;;;4.48;95.26;103898.31;5012947;28;45478;-67
2022/01/13 00:49:57;;;;;;;;;35.33;24.33;;;;;4.74;94.56;103931.84;5013011;28;45369;-68
2022/01/13 00:52:26;;;;;;;;;45.33;31.67;;;;;4.74;93.88;103940.56;5013151;28;45505;-68
2022/01/13 00:54:52;;;;;;;;;30.67;22.67;;;;;4.26;94.62;103871.91;5030710;28;46147;-68
2022/01/13 00:57:18;;;;;;;;;31.67;26.00;;;;;4.57;93.71;103944.00;5034979;28;45347;-67
2022/01/13 00:59:43;;;;;;;;;34.33;25.67;;;;;4.52;93.19;103942.03;5035256;28;45467;-67
2022/01/13 01:02:09;;;;;;;;;38.33;29.00;;;;;4.44;93.47;103939.81;5035545;28;45207;-67
2022/01/13 01:04:34;;;;;;;;;38.00;32.33;;;;;4.40;96.07;103932.63;5034761;28;46222;-68
2022/01/13 01:06:59;;;;;;;;;27.00;24.33;;;;;4.39;95.92;103921.31;5034939;28;45235;-68
2022/01/13 01:10:01;;;;;;;;;30.67;25.67;;;;;4.34;96.41;103912.31;5034943;28;45504;-68
2022/01/13 01:12:18;;;;;;;;;31.67;22.00;;;;;4.48;97.28;103932.22;5031880;28;45427;-67
2022/01/13 01:14:48;;;;;;;;;29.00;21.67;;;;;4.52;96.08;103935.91;5034499;28;47110;-67
2022/01/13 01:17:17;;;;;;;;;34.67;29.00;;;;;4.52;96.72;103933.31;5034658;28;45382;-67
2022/01/13 01:19:47;;;;;;;;;37.00;28.33;;;;;4.50;96.88;103929.69;5034114;28;45323;-68
2022/01/13 01:27:21;;;;;;;;;36.67;26.00;;;;;4.55;97.30;103941.31;5034444;28;45401;-67
2022/01/13 01:29:55;;;;;;;;;28.33;20.67;;;;;4.55;98.33;103941.31;5034330;28;45549;-68
2022/01/13 01:32:20;;;;;;;;;39.33;29.33;;;;;4.30;97.56;103894.75;5034801;28;45243;-68
2022/01/13 01:37:17;;;;;;;;;35.00;25.33;;;;;4.47;97.79;103940.91;5034197;28;45320;-68
2022/01/13 01:39:45;;;;;;;;;32.33;22.67;;;;;4.57;96.27;103942.25;5034317;28;45300;-68
2022/01/13 01:42:11;;;;;;;;;31.00;22.33;;;;;4.52;97.14;103939.41;5034736;28;45414;-67
2022/01/13 01:44:41;;;;;;;;;36.00;26.67;;;;;4.55;97.92;103950.84;5034212;28;46138;-68
2022/01/13 01:47:10;;;;;;;;;39.67;25.67;;;;;4.57;97.67;103955.31;5034080;27;45454;-68
2022/01/13 01:49:41;;;;;;;;;27.67;20.67;;;;;4.48;96.93;103942.66;5034250;28;45335;-68
2022/01/13 01:52:08;;;;;;;;;36.33;22.33;;;;;4.53;96.88;103945.53;5034576;28;45345;-68
2022/01/13 01:54:34;;;;;;;;;32.33;25.67;;;;;4.52;96.94;103951.56;5034017;28;46981;-68
2022/01/13 01:57:00;;;;;;;;;33.33;25.67;;;;;4.47;95.67;103950.41;5034154;28;45883;-68
2022/01/13 01:59:30;;;;;;;;;33.00;22.33;;;;;4.45;96.25;103945.13;5034196;27;45207;-68
2022/01/13 02:01:56;;;;;;;;;33.00;26.00;;;;;4.49;96.69;103956.63;5034386;28;45408;-68
2022/01/13 02:04:25;;;;;;;;;24.67;19.33;;;;;4.46;95.72;103946.91;5033754;28;46263;-68
2022/01/13 02:06:51;;;;;;;;;28.00;20.00;;;;;4.40;94.10;103948.28;5034019;28;45288;-68
2022/01/13 02:09:18;;;;;;;;;27.67;21.67;;;;;4.21;95.17;103939.44;5034178;28;45370;-68
2022/01/13 02:11:48;;;;;;;;;26.33;22.67;;;;;4.24;95.73;103944.84;5034132;28;45284;-68
2022/01/13 02:16:53;;;;;;;;;24.67;17.67;;;;;4.27;95.12;103952.84;5033940;28;45223;-68
2022/01/13 02:19:19;;;;;;;;;29.00;20.33;;;;;4.19;95.73;103943.69;5033928;28;45405;-68
2022/01/13 02:21:45;;;;;;;;;30.33;23.00;;;;;4.21;95.61;103949.88;5034085;28;45374;-68
2022/01/13 02:24:10;;;;;;;;;31.67;22.00;;;;;4.08;95.80;103924.84;5033835;28;45376;-68
2022/01/13 02:26:36;;;;;;;;;28.67;20.00;;;;;4.14;96.33;103939.94;5033594;28;45374;-68
2022/01/13 02:29:02;;;;;;;;;27.67;24.00;;;;;4.07;94.00;103937.81;5033709;28;45312;-67
2022/01/13 02:31:28;;;;;;;;;22.67;19.67;;;;;4.06;93.83;103960.34;5036193;28;45224;-68
2022/01/13 02:33:54;;;;;;;;;36.00;21.67;;;;;3.88;93.17;103939.38;5036628;28;46350;-67
2022/01/13 02:36:22;;;;;;;;;24.33;20.33;;;;;3.91;96.47;103957.78;5036811;28;45357;-67
2022/01/13 02:38:53;;;;;;;;;29.33;24.67;;;;;3.90;96.58;103934.25;5036784;28;45513;-68
2022/01/13 02:41:22;;;;;;;;;30.00;21.00;;;;;3.98;96.55;103936.47;5036848;28;45357;-68
2022/01/13 02:43:48;;;;;;;;;21.67;18.00;;;;;3.88;95.16;103923.72;5036492;28;47596;-67
2022/01/13 02:49:13;;;;;;;;;28.67;21.33;;;;;3.49;93.99;103900.69;5036373;28;45364;-68
2022/01/13 02:51:41;;;;;;;;;24.00;20.00;;;;;3.79;97.18;103944.97;5036480;28;45565;-68
2022/01/13 02:54:07;;;;;;;;;26.00;22.33;;;;;3.83;97.76;103943.41;5036390;28;45258;-67
2022/01/13 02:56:33;;;;;;;;;24.33;19.33;;;;;3.87;95.61;103939.28;5036213;28;45248;-67
2022/01/13 02:58:59;;;;;;;;;27.33;18.33;;;;;3.83;95.17;103933.91;5036348;28;45528;-68
2022/01/13 03:01:25;;;;;;;;;31.33;21.33;;;;;3.76;97.63;103920.41;5036747;28;45267;-68
2022/01/13 03:03:51;;;;;;;;;30.33;20.67;;;;;3.88;97.01;103922.81;5036322;28;46530;-68
2022/01/13 03:06:28;;;;;;;;;27.00;22.33;;;;;3.90;97.41;103927.31;5036553;28;45422;-68
2022/01/13 03:08:53;;;;;;;;;35.67;20.33;;;;;3.89;94.87;103920.28;5036488;28;45400;-68
2022/01/13 03:11:23;;;;;;;;;20.67;17.00;;;;;3.75;95.20;103914.31;5036402;28;45231;-68
2022/01/13 03:13:48;;;;;;;;;18.67;16.33;;;;;3.44;96.60;103883.00;5036239;28;45457;-67
2022/01/13 03:16:15;;;;;;;;;25.67;21.00;;;;;3.71;96.09;103914.94;5036176;28;45401;-68
2022/01/13 03:18:40;;;;;;;;;30.33;24.67;;;;;3.74;95.97;103920.31;5036276;28;45390;-68
2022/01/13 03:21:07;;;;;;;;;24.00;20.33;;;;;3.71;97.42;103925.38;5036719;28;45271;-68
2022/01/13 03:23:34;;;;;;;;;35.00;23.67;;;;;3.72;95.71;103923.66;5036105;28;46415;-68
2022/01/13 03:26:00;;;;;;;;;25.00;22.00;;;;;3.74;98.92;103928.16;5035982;28;45270;-67
2022/01/13 03:28:38;;;;;;;;;26.33;20.33;;;;;3.69;96.09;103913.97;5035835;28;45412;-67
2022/01/13 03:31:05;;;;;;;;;29.33;20.00;;;;;3.71;96.39;103919.28;5036063;28;45299;-68
2022/01/13 03:33:31;;;;;;;;;27.50;20.00;;;;;3.48;97.03;103869.34;5035987;28;45327;-68
2022/01/13 03:35:58;;;;;;;;;33.33;24.33;;;;;3.74;97.66;103909.91;5036100;28;45318;-68
2022/01/13 03:38:24;;;;;;;;;27.33;23.33;;;;;3.72;97.46;103902.78;5035966;28;45236;-68
2022/01/13 03:40:50;;;;;;;;;32.00;19.00;;;;;3.65;96.88;103894.63;5036099;28;45370;-68
2022/01/13 03:43:17;;;;;;;;;24.33;20.67;;;;;3.62;95.24;103888.38;5035676;28;46259;-68
2022/01/13 03:45:42;;;;;;;;;33.33;22.00;;;;;3.62;96.53;103901.41;5035840;28;45285;-68
2022/01/13 03:48:09;;;;;;;;;25.33;20.33;;;;;3.58;98.19;103899.44;5035733;27;45432;-68
2022/01/13 03:50:35;;;;;;;;;35.33;23.67;;;;;3.56;99.10;103894.13;5036004;27;45502;-68
2022/01/13 03:53:03;;;;;;;;;32.33;22.67;;;;;3.68;97.30;103900.84;5035782;28;45370;-68
2022/01/13 03:55:35;;;;;;;;;31.33;24.67;;;;;3.66;96.68;103898.16;5035771;28;45281;-67
2022/01/13 03:58:15;;;;;;;;;36.67;24.67;;;;;3.63;96.41;103897.97;5035657;28;45365;-67
2022/01/13 04:01:18;;;;;;;;;28.33;21.67;;;;;3.58;97.55;103889.88;5035848;28;45430;-68
2022/01/13 04:03:44;;;;;;;;;39.67;22.33;;;;;3.61;98.65;103894.38;5035367;28;46653;-68
2022/01/13 04:06:16;;;;;;;;;35.33;22.33;;;;;3.62;96.77;103891.88;5035697;28;45448;-68
2022/01/13 04:08:45;;;;;;;;;24.67;21.33;;;;;3.58;97.20;103883.78;5035847;27;45725;-68
2022/01/13 04:11:21;;;;;;;;;34.33;24.33;;;;;3.61;96.49;103882.25;5035913;28;45294;-68
2022/01/13 04:13:51;;;;;;;;;26.33;21.33;;;;;3.56;96.87;103875.88;5035232;28;46383;-68
2022/01/13 04:16:27;;;;;;;;;28.67;24.00;;;;;3.61;97.16;103881.34;5035605;28;45432;-68
2022/01/13 04:18:57;;;;;;;;;36.00;26.00;;;;;3.60;99.03;103882.16;5035496;28;45250;-68
2022/01/13 04:21:22;;;;;;;;;32.33;20.33;;;;;3.55;97.49;103871.47;5035551;28;45368;-68
2022/01/13 04:23:49;;;;;;;;;37.50;26.50;;;;;3.65;99.83;103880.72;5035377;28;45877;-68
2022/01/13 04:26:19;;;;;;;;;34.33;24.67;;;;;3.74;97.71;103886.44;5035281;28;45364;-68
2022/01/13 04:28:46;;;;;;;;;28.67;25.67;;;;;3.76;98.19;103890.06;5035278;28;45341;-68
2022/01/13 04:31:11;;;;;;;;;36.00;23.67;;;;;3.68;98.84;103874.78;5035648;28;45687;-68
2022/01/13 04:33:38;;;;;;;;;43.67;34.00;;;;;3.76;99.06;103899.56;5034921;28;47356;-68
2022/01/13 04:36:06;;;;;;;;;39.33;28.00;;;;;3.79;99.14;103897.13;5035495;28;45295;-68
2022/01/13 04:38:32;;;;;;;;;47.33;35.33;;;;;3.76;98.84;103895.25;5035304;28;45398;-68
2022/01/13 04:41:00;;;;;;;;;45.33;35.33;;;;;3.56;98.31;103860.25;5035520;28;45284;-68
2022/01/13 04:43:29;;;;;;;;;36.33;28.67;;;;;3.76;98.89;103882.25;5034985;28;46736;-68
2022/01/13 04:45:55;;;;;;;;;35.33;26.33;;;;;3.81;97.90;103891.19;5035133;28;45465;-68
2022/01/13 04:48:21;;;;;;;;;35.33;27.67;;;;;3.83;98.00;103900.00;5034784;27;45386;-68
2022/01/13 04:50:47;;;;;;;;;39.33;33.00;;;;;3.82;97.52;103898.22;5034153;28;45433;-68
2022/01/13 04:53:13;;;;;;;;;32.67;25.67;;;;;3.84;97.36;103893.97;5033831;28;47196;-68
2022/01/13 04:55:39;;;;;;;;;39.67;27.67;;;;;3.71;96.76;103872.34;5035088;28;45785;-68
2022/01/13 04:58:06;;;;;;;;;43.33;26.67;;;;;3.72;96.13;103888.09;5034771;28;45397;-68
2022/01/13 05:00:33;;;;;;;;;29.00;22.00;;;;;3.66;95.75;103878.22;5034716;28;45360;-68
2022/01/13 05:02:59;;;;;;;;;21.00;16.67;;;;;3.65;94.17;103883.34;5033946;28;46874;-68
2022/01/13 05:05:26;;;;;;;;;35.00;23.00;;;;;3.64;95.39;103881.53;5034715;28;45341;-68
2022/01/13 05:07:52;;;;;;;;;34.00;21.33;;;;;3.70;96.23;103889.69;5034834;28;45303;-68
2022/01/13 05:10:18;;;;;;;;;25.00;17.67;;;;;3.67;95.88;103897.34;5035059;28;45509;-68
2022/01/13 05:12:46;;;;;;;;;31.33;24.00;;;;;3.61;95.19;103899.59;5026374;28;45456;-68
2022/01/13 05:15:18;;;;;;;;;30.33;24.67;;;;;3.58;96.66;103907.25;5025821;28;45520;-68
2022/01/13 05:18:04;;;;;;;;;26.33;19.33;;;;;3.57;94.99;103901.16;5015033;28;45292;-67
2022/01/13 05:20:41;;;;;;;;;34.33;22.67;;;;;3.49;93.56;103907.59;5014870;28;45226;-68
2022/01/13 05:23:11;;;;;;;;;28.67;21.00;;;;;3.40;94.92;103896.63;5014607;28;46793;-68
2022/01/13 05:25:38;;;;;;;;;33.33;28.00;;;;;3.28;94.64;103884.72;5014632;28;45387;-68
2022/01/13 05:28:03;;;;;;;;;31.33;26.00;;;;;3.27;95.34;103890.72;5014434;28;45501;-68
2022/01/13 05:30:29;;;;;;;;;36.67;22.67;;;;;3.26;97.03;103880.22;5014795;28;45237;-68
2022/01/13 05:32:56;;;;;;;;;26.00;22.00;;;;;3.13;96.84;103849.97;5014766;27;45606;-68
2022/01/13 05:35:22;;;;;;;;;39.00;26.67;;;;;3.34;94.28;103888.47;5014605;28;45358;-68
2022/01/13 05:37:47;;;;;;;;;33.00;21.00;;;;;3.25;94.94;103884.56;5014699;28;45368;-67
2022/01/13 05:40:13;;;;;;;;;36.33;16.67;;;;;3.26;93.33;103896.75;5015001;27;45356;-68
2022/01/13 05:42:39;;;;;;;;;24.00;22.00;;;;;3.17;97.12;103879.69;5014243;28;46098;-68
2022/01/13 05:45:13;;;;;;;;;31.00;17.67;;;;;3.22;95.80;103889.56;5014558;28;45317;-68
2022/01/13 05:47:40;;;;;;;;;35.67;24.00;;;;;3.10;94.00;103881.91;5014248;28;45319;-68
2022/01/13 05:50:06;;;;;;;;;30.67;21.33;;;;;3.06;94.48;103895.56;5014471;28;45430;-68
2022/01/13 05:52:31;;;;;;;;;30.00;25.33;;;;;2.98;95.09;103891.63;5014353;28;45514;-68
2022/01/13 05:54:57;;;;;;;;;25.33;23.00;;;;;3.00;94.15;103902.13;5014167;28;45300;-67
2022/01/13 05:57:22;;;;;;;;;27.00;24.00;;;;;3.04;97.20;103897.19;5014299;28;45920;-68
2022/01/13 05:59:47;;;;;;;;;36.67;29.67;;;;;3.13;96.76;103894.22;5014441;28;45340;-67
2022/01/13 06:02:13;;;;;;;;;26.33;23.33;;;;;2.91;97.13;103851.31;5014042;28;45339;-68
2022/01/13 06:04:38;;;;;;;;;30.67;25.00;;;;;3.15;95.56;103887.41;5015241;28;45208;-67
2022/01/13 06:07:03;;;;;;;;;41.67;28.00;;;;;3.10;95.85;103878.44;5017300;28;45753;-68
2022/01/13 06:09:29;;;;;;;;;33.33;27.67;;;;;3.17;95.97;103904.03;5017289;28;45240;-67
2022/01/13 06:11:58;;;;;;;;;36.33;24.33;;;;;3.20;97.03;103892.91;5017213;28;46625;-67
2022/01/13 06:14:24;;;;;;;;;42.67;28.00;;;;;3.24;95.08;103900.06;5016922;28;45445;-67
2022/01/13 06:16:49;;;;;;;;;38.33;26.00;;;;;3.22;95.40;103902.56;5017144;28;45347;-67
2022/01/13 06:19:14;;;;;;;;;31.67;28.67;;;;;2.92;94.92;103857.41;5017192;28;45582;-67
2022/01/13 06:21:40;;;;;;;;;34.33;25.33;;;;;3.08;94.21;103893.03;5016855;28;46265;-67
2022/01/13 06:24:05;;;;;;;;;35.67;27.00;;;;;3.04;95.18;103902.41;5017031;28;45438;-68
2022/01/13 06:26:31;;;;;;;;;33.00;25.33;;;;;3.06;96.73;103892.97;5016931;28;45550;-67
2022/01/13 06:28:56;;;;;;;;;43.00;27.00;;;;;3.06;93.94;103899.88;5017025;28;45335;-68
2022/01/13 06:31:21;;;;;;;;;44.33;29.00;;;;;2.87;95.50;103871.84;5016679;28;46264;-68
2022/01/13 06:33:47;;;;;;;;;32.00;25.00;;;;;2.93;94.92;103890.44;5017027;28;45302;-67
2022/01/13 06:36:12;;;;;;;;;43.00;25.33;;;;;2.93;95.24;103898.25;5017117;28;45527;-67
2022/01/13 06:38:38;;;;;;;;;29.00;22.33;;;;;2.95;95.04;103901.84;5017094;28;45271;-68
2022/01/13 06:41:03;;;;;;;;;45.33;19.00;;;;;2.84;95.08;103896.00;5016841;28;45431;-67
2022/01/13 06:43:29;;;;;;;;;32.33;20.67;;;;;2.79;94.62;103882.72;5016329;28;45377;-68
2022/01/13 06:45:54;;;;;;;;;24.33;20.33;;;;;2.84;94.10;103893.38;5016939;28;45375;-68
2022/01/13 06:48:20;;;;;;;;;28.00;18.33;;;;;2.74;94.08;103885.84;5016595;28;45288;-68
2022/01/13 06:50:45;;;;;;;;;28.00;23.67;;;;;2.83;95.88;103896.78;5016427;28;46505;-68
2022/01/13 06:53:11;;;;;;;;;28.33;15.00;;;;;2.85;95.27;103896.91;4998551;28;45325;-67
2022/01/13 06:55:36;;;;;;;;;31.33;23.00;;;;;2.81;95.31;103892.31;5016651;28;45221;-68
2022/01/13 06:58:04;;;;;;;;;32.67;21.33;;;;;2.94;95.04;103910.47;5016658;28;45248;-68
2022/01/13 07:00:29;;;;;;;;;27.67;18.33;;;;;2.97;94.17;103902.84;5015961;28;46700;-68
2022/01/13 07:02:58;;;;;;;;;27.00;19.67;;;;;2.86;93.30;103909.09;5016144;28;45459;-68
2022/01/13 07:05:24;;;;;;;;;26.33;18.33;;;;;2.73;94.82;103897.97;5016489;28;45334;-68
2022/01/13 07:07:50;;;;;;;;;35.33;23.67;;;;;2.78;93.14;103926.84;5016619;28;45712;-68
2022/01/13 07:10:15;;;;;;;;;26.00;19.00;;;;;2.69;94.09;103897.69;5015959;28;45465;-68
2022/01/13 07:12:41;;;;;;;;;33.33;22.67;;;;;2.73;94.36;103900.56;5015732;28;45249;-68
2022/01/13 07:15:08;;;;;;;;;28.00;14.67;;;;;2.76;92.93;103915.47;5016242;28;45279;-68
2022/01/13 07:17:33;;;;;;;;;30.00;20.33;;;;;2.79;94.06;103918.25;5015512;28;45379;-68
2022/01/13 07:19:59;;;;;;;;;32.00;26.33;;;;;2.77;93.70;103925.97;5015928;28;45406;-68
2022/01/13 07:22:25;;;;;;;;;27.33;23.33;;;;;2.73;93.91;103900.56;5016090;28;45318;-68
2022/01/13 07:24:51;;;;;;;;;32.67;25.33;;;;;2.77;94.16;103923.38;5016393;28;45331;-68
2022/01/13 07:27:16;;;;;;;;;36.33;24.67;;;;;2.70;95.30;103920.28;5016233;28;45336;-67
2022/01/13 07:29:44;;;;;;;;;28.00;25.00;;;;;2.72;95.09;103927.38;5016033;28;45475;-67
2022/01/13 07:32:11;;;;;;;;;30.67;26.33;;;;;2.71;94.84;103928.16;5016030;28;45267;-68
2022/01/13 07:34:36;;;;;;;;;36.33;27.67;;;;;2.71;95.60;103928.16;5016240;28;45228;-68
2022/01/13 07:37:03;;;;;;;;;30.00;24.00;;;;;2.68;96.06;103924.50;5016597;27;45426;-68
2022/01/13 07:39:28;;;;;;;;;46.67;29.00;;;;;2.73;96.08;103936.97;5015789;28;45391;-68
2022/01/13 07:41:54;;;;;;;;;44.67;31.00;;;;;2.78;96.41;103935.53;5015750;28;45402;-68
2022/01/13 07:44:19;;;;;;;;;34.00;29.00;;;;;2.77;95.78;103930.25;5015925;28;45460;-67
2022/01/13 07:46:45;;;;;;;;;33.33;24.33;;;;;2.82;95.91;103935.72;5016014;28;45406;-67
2022/01/13 07:49:10;;;;;;;;;28.33;22.67;;;;;2.72;94.13;103919.56;4998032;28;45730;-68
2022/01/13 07:51:36;;;;;;;;;26.67;20.67;;;;;2.78;95.23;103937.25;5015618;28;45361;-67
2022/01/13 07:54:02;;;;;;;;;35.33;26.67;;;;;2.71;93.24;103929.88;5015905;28;45444;-67
2022/01/13 07:56:28;;;;;;;;;32.00;21.00;;;;;2.74;92.99;103961.28;5015944;28;45276;-68
2022/01/13 07:58:54;;;;;;;;;39.00;29.33;;;;;2.67;93.16;103957.41;5015394;28;45451;-68
2022/01/13 08:01:20;;;;;;;;;44.33;36.00;;;;;2.63;94.35;103965.84;5015459;28;45311;-68
2022/01/13 08:03:45;;;;;;;;;25.00;22.67;;;;;2.65;95.57;103956.41;5015676;28;45215;-68
2022/01/13 08:06:11;;;;;;;;;33.33;25.67;;;;;2.71;94.17;103956.78;5015901;28;45331;-68
2022/01/13 08:08:37;;;;;;;;;34.67;24.00;;;;;2.74;94.32;103959.56;5015208;28;47154;-67
2022/01/13 08:11:04;;;;;;;;;36.00;28.00;;;;;2.75;94.87;103958.78;5015553;28;45641;-67
2022/01/13 08:13:29;;;;;;;;;33.00;24.67;;;;;2.77;93.72;103965.00;5015541;28;45497;-68
2022/01/13 08:15:55;;;;;;;;;36.00;24.00;;;;;2.74;93.91;103972.59;5015734;28;45333;-67
2022/01/13 08:21:05;;;;;;;;;33.33;16.33;;;;;2.70;94.03;103959.28;5015253;28;45576;-68
2022/01/13 08:23:30;;;;;;;;;34.00;27.33;;;;;2.71;95.28;103950.69;5014324;28;45446;-68
2022/01/13 08:25:56;;;;;;;;;36.33;25.33;;;;;2.80;94.60;103951.25;5015344;28;45340;-68
2022/01/13 08:28:21;;;;;;;;;34.33;25.67;;;;;2.66;93.72;103929.59;5013152;28;45842;-68
2022/01/13 08:30:47;;;;;;;;;34.33;25.00;;;;;2.78;94.82;103961.56;5029279;28;45361;-68
2022/01/13 08:33:13;;;;;;;;;27.67;23.33;;;;;2.78;94.57;103945.94;5054725;28;45308;-69
2022/01/13 08:35:43;;;;;;;;;27.00;20.67;;;;;2.94;94.13;103966.00;5035111;28;45425;-69
2022/01/13 08:38:16;;;;;;;;;35.33;25.33;;;;;2.99;93.22;103976.69;5034772;28;47171;-67
2022/01/13 08:40:48;;;;;;;;;42.33;32.67;;;;;2.97;94.14;103971.38;5034619;28;45323;-68
2022/01/13 08:43:14;;;;;;;;;37.67;28.33;;;;;2.92;94.11;103956.28;5034933;28;45459;-68
2022/01/13 08:45:40;;;;;;;;;44.67;35.00;;;;;2.93;93.05;103953.81;5034839;28;45257;-68
2022/01/13 08:48:06;;;;;;;;;35.33;29.67;;;;;2.94;94.19;103966.00;5034639;27;45448;-69
2022/01/13 08:50:32;;;;;;;;;51.67;34.00;;;;;2.94;93.63;103941.69;5034782;28;45346;-69
2022/01/13 08:52:57;;;;;;;;;32.67;23.33;;;;;3.05;93.09;103957.94;5016933;28;45397;-68
2022/01/13 08:55:23;;;;;;;;;44.33;26.33;;;;;3.01;93.79;103956.00;5035034;28;45341;-68
2022/01/13 08:57:48;;;;;;;;;34.00;25.33;;;;;3.04;93.28;103951.84;5034631;28;45993;-68
2022/01/13 09:00:14;;;;;;;;;44.00;30.33;;;;;2.99;94.43;103927.22;5034395;27;45434;-68
2022/01/13 09:02:43;;;;;;;;;30.33;29.00;;;;;3.14;93.97;103946.38;5034713;28;45426;-68
2022/01/13 09:05:09;;;;;;;;;39.00;27.67;;;;;3.10;93.29;103927.91;5035162;28;45359;-68
2022/01/13 09:07:35;;;;;;;;;29.33;26.33;;;;;3.21;93.42;103938.94;5034392;28;45583;-68
2022/01/13 09:10:00;;;;;;;;;35.33;28.00;;;;;3.19;92.81;103925.81;5034089;28;45258;-69
2022/01/13 09:12:25;;;;;;;;;37.33;31.00;;;;;3.21;92.97;103916.41;5034510;28;45345;-69
2022/01/13 09:14:57;;;;;;;;;34.33;28.33;;;;;3.28;92.80;103921.19;5034577;28;45548;-68
2022/01/13 09:17:24;;;;;;;;;56.33;44.33;;;;;3.46;93.13;103946.50;5034284;28;45668;-68
2022/01/13 09:19:51;;;;;;;;;29.67;19.33;;;;;3.40;92.74;103931.41;5034690;27;45232;-68
2022/01/13 09:22:17;;;;;;;;;38.00;28.33;;;;;3.48;91.20;103945.75;5034265;28;45342;-67
2022/01/13 09:24:42;;;;;;;;;42.00;33.00;;;;;3.52;92.19;103940.75;5034545;28;45407;-68
2022/01/13 09:27:08;;;;;;;;;53.33;30.67;;;;;3.51;92.06;103928.53;5034453;28;46599;-70
2022/01/13 09:29:33;;;;;;;;;40.00;29.67;;;;;3.60;91.88;103936.88;5033913;28;45367;-73
2022/01/13 09:31:59;;;;;;;;;32.33;26.67;;;;;3.70;91.76;103933.09;5034584;27;45315;-67
2022/01/13 09:34:24;;;;;;;;;32.67;27.00;;;;;3.74;91.36;103941.16;5034546;28;45452;-67
2022/01/13 09:36:50;;;;;;;;;39.33;27.33;;;;;3.72;90.85;103935.00;5034067;28;45379;-67
2022/01/13 09:39:15;;;;;;;;;32.33;29.67;;;;;3.80;91.20;103938.03;5033779;28;45370;-67
2022/01/13 09:41:43;;;;;;;;;34.00;28.67;;;;;3.75;90.71;103919.53;5034100;28;45501;-68
2022/01/13 09:44:10;;;;;;;;;35.00;26.00;;;;;3.81;90.96;103925.06;5034250;28;45371;-68
2022/01/13 09:46:36;;;;;;;;;35.67;23.00;;;;;3.86;88.74;103937.47;5033792;28;47327;-68
2022/01/13 09:49:05;;;;;;;;;28.67;24.00;;;;;3.90;91.54;103932.50;5033405;27;45618;-71
2022/01/13 09:51:34;;;;;;;;;46.00;32.33;;;;;4.01;90.38;103939.25;5033911;28;45345;-68
2022/01/13 09:54:00;;;;;;;;;29.00;23.33;;;;;4.08;90.58;103929.16;5034405;28;45231;-67
2022/01/13 09:56:25;;;;;;;;;29.67;24.00;;;;;4.21;90.39;103951.59;5033853;28;46188;-68
2022/01/13 09:58:51;;;;;;;;;44.67;28.67;;;;;4.14;88.95;103947.75;5034043;28;45462;-67
2022/01/13 10:01:17;;;;;;;;;34.00;27.67;;;;;4.03;87.83;103936.72;5032331;28;45367;-66
2022/01/13 10:03:42;;;;;;;;;37.00;30.33;;;;;4.14;89.33;103947.75;5033685;28;45756;-67
2022/01/13 10:06:19;;;;;;;;;33.00;27.00;;;;;4.24;89.88;103959.59;5032125;28;46094;-67
2022/01/13 10:08:49;;;;;;;;;24.33;21.67;;;;;4.36;88.72;103953.34;5033574;28;45852;-67
2022/01/13 10:11:38;;;;;;;;;29.67;27.33;;;;;4.39;87.21;103944.78;5033368;28;45264;-67
2022/01/13 10:14:18;;;;;;;;;27.67;27.00;;;;;4.50;88.30;103948.88;5033764;27;45585;-68
2022/01/13 10:16:47;;;;;;;;;23.67;21.00;;;;;4.49;87.78;103946.19;5032975;28;45576;-69
2022/01/13 10:19:34;;;;;;;;;33.00;26.33;;;;;4.47;87.72;103953.03;5033292;28;45296;-68
2022/01/13 10:22:10;;;;;;;;;34.67;24.67;;;;;4.45;87.55;103950.34;5033485;28;45533;-67
2022/01/13 10:24:39;;;;;;;;;26.00;23.00;;;;;4.47;87.76;103956.56;5033131;27;45429;-68
2022/01/13 10:27:07;;;;;;;;;36.33;32.33;;;;;4.47;87.47;103955.63;5033322;28;45281;-68
2022/01/13 10:29:43;;;;;;;;;36.33;26.67;;;;;4.52;88.07;103960.28;5032853;28;45321;-67
2022/01/13 10:32:10;;;;;;;;;32.33;24.00;;;;;4.53;87.21;103954.25;5033299;28;45493;-66
2022/01/13 10:34:39;;;;;;;;;43.67;32.33;;;;;4.59;87.04;103958.00;5033813;28;45405;-67
2022/01/13 10:37:13;;;;;;;;;30.33;26.33;;;;;4.69;87.88;103961.22;5032819;28;46222;-66
2022/01/13 10:39:50;;;;;;;;;34.67;27.33;;;;;4.69;86.58;103962.91;5033206;28;45427;-66
2022/01/13 10:42:45;;;;;;;;;23.33;21.00;;;;;4.71;87.43;103956.97;5033495;27;45260;-68
2022/01/13 10:45:11;;;;;;;;;33.67;24.67;;;;;4.81;86.83;103963.56;5032836;28;45613;-67
2022/01/13 10:47:40;;;;;;;;;29.00;24.33;;;;;4.86;86.42;103956.88;5032771;27;46123;-68
2022/01/13 10:50:09;;;;;;;;;34.00;28.00;;;;;4.83;86.18;103940.16;5032799;28;45365;-65
2022/01/13 10:52:34;;;;;;;;;35.67;28.00;;;;;4.86;85.96;103946.41;5035423;28;45437;-70
2022/01/13 10:55:09;;;;;;;;;47.00;35.67;;;;;4.92;86.85;103948.47;5036810;28;45758;-71
2022/01/13 10:57:35;;;;;;;;;34.33;30.33;;;;;4.92;86.85;103931.91;5036245;28;46320;-67
2022/01/13 11:00:04;;;;;;;;;31.33;28.00;;;;;5.07;85.66;103948.38;5035850;28;45162;-69
2022/01/13 11:02:29;;;;;;;;;33.33;28.33;;;;;5.01;85.55;103925.47;5036589;28;45321;-67
2022/01/13 11:05:01;;;;;;;;;41.67;35.67;;;;;5.06;85.21;103934.41;5036299;27;45335;-66
2022/01/13 11:07:27;;;;;;;;;33.33;29.00;;;;;5.10;86.02;103924.13;5035863;28;45533;-67
2022/01/13 11:10:03;;;;;;;;;45.00;35.67;;;;;5.28;85.13;103942.47;5036121;28;45400;-67
2022/01/13 11:12:39;;;;;;;;;45.33;33.00;;;;;5.34;85.04;103929.72;5035897;28;45432;-67
2022/01/13 11:15:13;;;;;;;;;43.00;35.00;;;;;5.49;84.75;103925.25;5035813;28;45419;-67
2022/01/13 11:17:38;;;;;;;;;44.33;35.33;;;;;5.51;83.74;103905.31;5035632;28;46365;-67
2022/01/13 11:20:10;;;;;;;;;53.67;42.67;;;;;5.71;84.06;103908.03;5036135;28;45431;-67
2022/01/13 11:22:38;;;;;;;;;32.00;23.33;;;;;5.85;84.45;103906.06;5035758;28;45377;-67
2022/01/13 11:25:06;;;;;;;;;50.00;41.00;;;;;5.96;83.18;103910.09;5035800;28;45404;-67
2022/01/13 11:27:32;;;;;;;;;45.67;34.67;;;;;6.04;82.18;103893.09;5035652;28;46124;-67
2022/01/13 11:29:58;;;;;;;;;54.00;42.67;;;;;6.10;82.88;103884.63;5035397;28;45514;-67
2022/01/13 11:32:23;;;;;;;;;48.33;35.67;;;;;6.25;82.03;103900.13;5035994;28;45458;-69
2022/01/13 11:34:49;;;;;;;;;37.67;32.33;;;;;6.19;82.30;103894.63;5036128;28;45540;-69
2022/01/13 11:37:16;;;;;;;;;42.00;36.00;;;;;6.13;81.20;103881.25;5035430;28;45265;-67
2022/01/13 11:39:44;;;;;;;;;42.00;34.00;;;;;6.07;80.92;103879.22;5035857;28;45450;-67
2022/01/13 11:42:12;;;;;;;;;56.33;45.00;;;;;5.83;83.39;103851.06;5025033;28;45353;-73
2022/01/13 11:44:40;;;;;;;;;41.33;30.67;;;;;6.02;83.48;103885.97;5015649;28;45364;-70